Time;durP1;ratioP1;P1;durP2;ratioP2;P2;SDS_P1;SDS_P2;PMS_P1;PMS_P2;Temp;Humidity;BMP_temperature;BMP_pressure;BME280_temperature;BME280_humidity;BME280_pressure;Samples;Min_cycle;Max_cycle;Signal;HPM_P1;HPM_P2
2024/01/21 00:01:40;;;;;;;10.55;6.50;;;2.10;74.40;;;;;;5071203;28;20130;-36
2024/01/21 00:04:11;;;;;;;10.23;6.45;;;2.20;74.50;;;;;;5071478;28;20024;-36
2024/01/21 00:06:37;;;;;;;12.52;6.80;;;2.10;74.40;;;;;;5071707;28;20503;-36
2024/01/21 00:09:02;;;;;;;10.77;6.15;;;2.10;74.30;;;;;;5071349;28;20028;-35
2024/01/21 00:11:28;;;;;;;10.65;6.40;;;2.10;74.40;;;;;;5071614;28;20031;-37
2024/01/21 00:13:53;;;;;;;9.63;5.47;;;2.00;74.30;;;;;;5071372;28;20351;-36
2024/01/21 00:16:19;;;;;;;11.15;6.03;;;2.00;74.30;;;;;;5070447;28;20020;-35
2024/01/21 00:18:44;;;;;;;10.10;6.50;;;2.00;74.40;;;;;;5071242;28;20031;-35
2024/01/21 00:21:10;;;;;;;11.52;6.30;;;2.00;74.40;;;;;;5071179;28;20431;-35
2024/01/21 00:23:35;;;;;;;10.95;6.07;;;2.00;74.40;;;;;;5071274;28;20025;-36
2024/01/21 00:26:01;;;;;;;10.75;6.18;;;2.00;74.40;;;;;;5071185;28;20458;-35
2024/01/21 00:28:27;;;;;;;10.10;6.20;;;2.00;74.30;;;;;;5071148;28;20028;-38
2024/01/21 00:30:52;;;;;;;11.50;6.78;;;2.00;75.00;;;;;;5071001;28;20037;-36
2024/01/21 00:33:20;;;;;;;11.02;6.40;;;2.00;74.30;;;;;;5071450;28;20029;-38
2024/01/21 00:35:46;;;;;;;10.65;6.47;;;2.00;74.90;;;;;;5071111;28;20347;-36
2024/01/21 00:38:11;;;;;;;10.32;6.05;;;2.00;74.20;;;;;;5071167;28;20025;-36
2024/01/21 00:40:37;;;;;;;10.57;5.80;;;2.00;74.20;;;;;;5071187;28;20028;-40
2024/01/21 00:43:03;;;;;;;9.25;5.80;;;2.00;74.20;;;;;;5071394;28;20078;-38
2024/01/21 00:45:28;;;;;;;8.73;5.85;;;1.90;74.00;;;;;;5071188;28;20384;-38
2024/01/21 00:47:55;;;;;;;9.82;5.80;;;1.90;74.40;;;;;;5071059;28;20429;-38
2024/01/21 00:50:21;;;;;;;9.52;5.78;;;1.90;74.40;;;;;;5073456;28;20087;-40
2024/01/21 00:52:47;;;;;;;9.07;5.13;;;1.90;74.30;;;;;;5074560;28;20028;-39
2024/01/21 00:55:12;;;;;;;10.25;5.60;;;1.90;74.20;;;;;;5074578;28;20024;-40
2024/01/21 00:57:38;;;;;;;7.65;4.95;;;1.90;74.10;;;;;;5074553;28;20035;-39
2024/01/21 01:00:04;;;;;;;9.00;5.45;;;1.90;74.10;;;;;;5073136;28;20183;-34
2024/01/21 01:02:30;;;;;;;8.77;4.97;;;1.90;74.30;;;;;;5074411;28;20036;-36
2024/01/21 01:04:56;;;;;;;8.32;5.05;;;1.90;74.20;;;;;;5074404;28;20025;-38
2024/01/21 01:07:22;;;;;;;10.70;5.82;;;2.00;75.30;;;;;;5074555;28;20576;-37
2024/01/21 01:09:47;;;;;;;8.95;4.88;;;1.90;75.30;;;;;;5074566;28;20384;-36
2024/01/21 01:12:13;;;;;;;9.55;5.43;;;1.90;74.90;;;;;;5074379;28;20134;-36
2024/01/21 01:14:42;;;;;;;9.13;5.10;;;1.90;74.50;;;;;;5074171;28;20028;-36
2024/01/21 01:17:08;;;;;;;8.63;5.18;;;1.90;74.40;;;;;;5074495;28;20021;-36
2024/01/21 01:19:34;;;;;;;7.50;4.70;;;1.90;74.50;;;;;;5073972;28;20158;-35
2024/01/21 01:21:59;;;;;;;8.25;5.07;;;1.90;74.30;;;;;;5074198;28;20028;-36
2024/01/21 01:24:25;;;;;;;8.77;5.32;;;1.80;74.00;;;;;;5074151;28;20037;-36
2024/01/21 01:26:50;;;;;;;7.72;5.05;;;1.80;74.10;;;;;;5074076;28;20075;-37
2024/01/21 01:29:16;;;;;;;6.53;4.40;;;1.80;74.00;;;;;;5074181;28;20426;-36
2024/01/21 01:31:42;;;;;;;8.57;5.10;;;1.70;74.10;;;;;;5073917;28;20081;-36
2024/01/21 01:34:08;;;;;;;9.60;5.05;;;1.70;74.00;;;;;;5073966;28;20496;-37
2024/01/21 01:36:34;;;;;;;6.60;4.40;;;1.70;74.00;;;;;;5074150;28;20033;-35
2024/01/21 01:38:59;;;;;;;8.65;5.30;;;1.70;74.90;;;;;;5073761;28;20050;-36
2024/01/21 01:41:25;;;;;;;9.20;5.25;;;1.60;74.80;;;;;;5073744;28;20090;-35
2024/01/21 01:43:50;;;;;;;7.63;4.80;;;1.60;74.50;;;;;;5073960;28;20119;-36
2024/01/21 01:46:16;;;;;;;8.95;5.18;;;1.60;74.60;;;;;;5073695;28;20033;-37
2024/01/21 01:48:42;;;;;;;8.40;5.03;;;1.60;74.30;;;;;;5073573;28;20029;-36
2024/01/21 01:51:08;;;;;;;7.75;4.90;;;1.60;74.10;;;;;;5073534;28;20111;-37
2024/01/21 01:53:36;;;;;;;7.30;4.68;;;1.50;74.20;;;;;;5073504;28;20503;-36
2024/01/21 01:56:02;;;;;;;8.70;4.43;;;1.50;74.60;;;;;;5073480;28;20028;-36
2024/01/21 01:58:29;;;;;;;7.68;4.80;;;1.50;75.20;;;;;;5073651;28;20381;-37
2024/01/21 02:00:56;;;;;;;8.77;4.72;;;1.50;76.20;;;;;;5072796;28;20417;-37
2024/01/21 02:03:23;;;;;;;6.60;4.35;;;1.50;75.90;;;;;;5073641;28;20036;-36
2024/01/21 02:05:49;;;;;;;8.13;5.03;;;1.40;76.10;;;;;;5073297;28;20025;-37
2024/01/21 02:08:14;;;;;;;6.63;4.25;;;1.40;76.20;;;;;;5073296;28;20385;-36
2024/01/21 02:10:40;;;;;;;9.23;5.30;;;1.40;76.90;;;;;;5073438;28;20093;-36
2024/01/21 02:13:06;;;;;;;9.00;5.32;;;1.30;76.90;;;;;;5073184;28;20033;-37
2024/01/21 02:15:31;;;;;;;6.07;3.85;;;1.30;77.10;;;;;;5071756;28;20090;-37
2024/01/21 02:17:57;;;;;;;7.93;4.70;;;1.20;77.60;;;;;;5073032;28;20029;-36
2024/01/21 02:20:22;;;;;;;7.85;4.65;;;1.20;78.70;;;;;;5072907;28;20024;-35
2024/01/21 02:22:49;;;;;;;10.05;6.13;;;1.20;78.40;;;;;;5072894;28;20025;-37
2024/01/21 02:25:15;;;;;;;8.32;5.30;;;1.20;78.30;;;;;;5073287;28;20291;-36
2024/01/21 02:27:40;;;;;;;10.20;6.50;;;1.20;78.20;;;;;;5072711;28;20029;-42
2024/01/21 02:30:06;;;;;;;9.52;6.68;;;1.20;78.00;;;;;;5072829;28;20024;-36
2024/01/21 02:32:32;;;;;;;13.60;7.03;;;1.20;77.90;;;;;;5072750;28;20025;-33
2024/01/21 02:34:58;;;;;;;9.25;6.25;;;1.20;77.60;;;;;;5072586;28;20072;-37
2024/01/21 02:37:23;;;;;;;7.65;5.10;;;1.20;77.40;;;;;;5072658;28;20082;-34
2024/01/21 02:39:49;;;;;;;8.75;4.82;;;1.30;77.50;;;;;;5072463;28;20020;-39
2024/01/21 02:42:14;;;;;;;11.02;5.65;;;1.20;77.20;;;;;;5072479;28;20028;-35
2024/01/21 02:44:40;;;;;;;8.77;5.20;;;1.30;76.90;;;;;;5072492;28;20056;-35
2024/01/21 02:47:06;;;;;;;7.95;4.57;;;1.30;76.90;;;;;;5072478;28;20085;-36
2024/01/21 02:49:31;;;;;;;9.52;4.70;;;1.30;76.80;;;;;;5072639;28;20028;-34
2024/01/21 02:51:58;;;;;;;6.13;4.03;;;1.40;77.90;;;;;;5072612;28;20508;-35
2024/01/21 02:54:24;;;;;;;7.82;4.60;;;1.40;77.50;;;;;;5072324;28;20108;-34
2024/01/21 02:56:50;;;;;;;7.80;4.65;;;1.40;77.20;;;;;;5072336;28;20033;-35
2024/01/21 02:59:15;;;;;;;8.25;4.40;;;1.40;76.90;;;;;;5072034;28;20028;-34
2024/01/21 03:01:41;;;;;;;7.15;3.95;;;1.40;76.90;;;;;;5071961;28;20017;-35
2024/01/21 03:04:11;;;;;;;4.57;3.22;;;1.40;77.60;;;;;;5072611;28;20025;-36
2024/01/21 03:06:37;;;;;;;6.65;3.85;;;1.50;77.90;;;;;;5072152;28;20027;-36
2024/01/21 03:09:03;;;;;;;5.13;3.40;;;1.40;78.40;;;;;;5072059;28;20481;-35
2024/01/21 03:11:29;;;;;;;4.72;3.40;;;1.40;79.60;;;;;;5071864;28;20020;-36
2024/01/21 03:13:55;;;;;;;8.00;4.00;;;1.50;79.80;;;;;;5069937;28;20031;-35
2024/01/21 03:16:20;;;;;;;8.40;3.97;;;1.50;79.80;;;;;;5072024;28;20028;-37
2024/01/21 03:18:46;;;;;;;6.82;4.25;;;1.50;79.50;;;;;;5071935;28;20028;-36
2024/01/21 03:21:11;;;;;;;5.65;3.97;;;1.60;80.00;;;;;;5072127;28;20100;-35
2024/01/21 03:23:37;;;;;;;6.60;4.10;;;1.60;79.50;;;;;;5071978;28;20024;-36
2024/01/21 03:26:03;;;;;;;5.65;3.85;;;1.60;79.00;;;;;;5071894;28;20017;-35
2024/01/21 03:28:28;;;;;;;7.68;4.70;;;1.60;78.50;;;;;;5071573;28;20150;-37
2024/01/21 03:30:54;;;;;;;6.85;4.55;;;1.60;78.30;;;;;;5071574;28;20081;-36
2024/01/21 03:33:20;;;;;;;7.32;4.28;;;1.60;77.90;;;;;;5071573;28;20032;-37
2024/01/21 03:35:47;;;;;;;7.80;4.28;;;1.60;77.40;;;;;;5071848;28;20036;-36
2024/01/21 03:38:13;;;;;;;6.57;4.00;;;1.60;77.40;;;;;;5071967;28;20092;-37
2024/01/21 03:40:38;;;;;;;6.78;3.97;;;1.60;77.00;;;;;;5071724;28;20572;-36
2024/01/21 03:43:04;;;;;;;6.82;4.20;;;1.60;76.70;;;;;;5071672;28;20060;-36
2024/01/21 03:45:29;;;;;;;7.28;4.05;;;1.60;76.80;;;;;;5071581;28;20477;-37
2024/01/21 03:47:55;;;;;;;6.90;4.03;;;1.60;76.60;;;;;;5071536;28;20028;-35
2024/01/21 03:50:21;;;;;;;5.80;4.13;;;1.60;76.40;;;;;;5071466;28;20036;-35
2024/01/21 03:52:47;;;;;;;6.75;3.50;;;1.60;76.50;;;;;;5071751;28;20025;-36
2024/01/21 03:55:17;;;;;;;5.70;3.10;;;1.60;77.20;;;;;;5071528;28;20046;-35
2024/01/21 03:57:43;;;;;;;6.25;3.72;;;1.60;77.20;;;;;;5071461;28;20028;-36
2024/01/21 04:00:10;;;;;;;5.88;3.03;;;1.60;77.20;;;;;;5071461;28;20032;-37
2024/01/21 04:02:35;;;;;;;6.03;2.90;;;1.60;77.60;;;;;;5071397;28;20128;-36
2024/01/21 04:05:02;;;;;;;5.03;3.33;;;1.60;77.80;;;;;;5071673;28;20115;-35
2024/01/21 04:07:28;;;;;;;5.60;3.55;;;1.60;77.70;;;;;;5071455;28;20029;-36
2024/01/21 04:09:54;;;;;;;5.93;3.38;;;1.60;77.10;;;;;;5071475;28;20032;-35
2024/01/21 04:12:20;;;;;;;5.97;3.53;;;1.60;76.90;;;;;;5071710;28;20039;-36
2024/01/21 04:14:45;;;;;;;4.80;3.13;;;1.60;76.80;;;;;;5071333;28;20492;-36
2024/01/21 04:17:11;;;;;;;5.28;3.28;;;1.60;76.70;;;;;;5071360;28;20029;-34
2024/01/21 04:19:37;;;;;;;4.80;3.33;;;1.60;76.30;;;;;;5071173;28;20033;-36
2024/01/21 04:22:03;;;;;;;4.80;3.10;;;1.60;76.20;;;;;;5071212;28;20029;-36
2024/01/21 04:24:29;;;;;;;5.65;3.08;;;1.60;76.10;;;;;;5072605;28;20020;-36
2024/01/21 04:26:55;;;;;;;4.85;3.10;;;1.60;76.50;;;;;;5075323;28;20027;-36
2024/01/21 04:29:21;;;;;;;6.50;3.58;;;1.60;76.00;;;;;;5075001;28;20127;-36
2024/01/21 04:31:46;;;;;;;5.90;3.90;;;1.60;75.80;;;;;;5074902;28;20361;-35
2024/01/21 04:34:12;;;;;;;6.63;3.70;;;1.60;75.50;;;;;;5075025;28;20047;-36
2024/01/21 04:36:38;;;;;;;5.15;3.17;;;1.60;75.40;;;;;;5075318;28;20104;-35
2024/01/21 04:39:03;;;;;;;6.13;3.33;;;1.50;75.30;;;;;;5075012;28;20049;-36
2024/01/21 04:41:29;;;;;;;5.93;3.22;;;1.50;75.10;;;;;;5075145;28;20095;-36
2024/01/21 04:43:56;;;;;;;5.68;3.45;;;1.50;75.10;;;;;;5074913;28;20462;-36
2024/01/21 04:46:22;;;;;;;6.28;3.58;;;1.50;75.20;;;;;;5075122;28;20059;-36
2024/01/21 04:48:48;;;;;;;6.57;3.67;;;1.60;75.10;;;;;;5074881;28;20056;-37
2024/01/21 04:51:14;;;;;;;5.45;3.30;;;1.60;74.90;;;;;;5074631;28;20103;-36
2024/01/21 04:53:39;;;;;;;5.10;3.28;;;1.60;74.70;;;;;;5073907;28;20024;-36
2024/01/21 04:56:05;;;;;;;5.03;3.00;;;1.60;74.50;;;;;;5073037;28;20385;-36
2024/01/21 04:58:34;;;;;;;4.97;3.28;;;1.70;74.30;;;;;;5073933;28;20020;-36
2024/01/21 05:00:59;;;;;;;5.10;3.17;;;1.70;74.30;;;;;;5074440;28;20111;-37
2024/01/21 05:03:25;;;;;;;4.78;3.30;;;1.70;74.20;;;;;;5074411;28;20513;-36
2024/01/21 05:05:51;;;;;;;5.75;3.47;;;1.70;74.10;;;;;;5074408;28;20055;-37
2024/01/21 05:08:16;;;;;;;4.72;2.92;;;1.80;74.00;;;;;;5074374;28;20028;-36
2024/01/21 05:10:42;;;;;;;5.63;3.05;;;1.90;73.80;;;;;;5074431;28;20469;-35
2024/01/21 05:13:07;;;;;;;3.90;3.03;;;1.90;73.60;;;;;;5074402;28;20528;-36
2024/01/21 05:15:33;;;;;;;5.43;3.25;;;1.90;73.30;;;;;;5074236;28;20031;-36
2024/01/21 05:17:58;;;;;;;6.95;3.38;;;2.00;73.30;;;;;;5074298;28;20534;-36
2024/01/21 05:20:24;;;;;;;5.22;2.92;;;2.00;73.20;;;;;;5074441;28;20384;-37
2024/01/21 05:22:54;;;;;;;5.15;2.95;;;2.00;73.10;;;;;;5074416;28;20029;-37
2024/01/21 05:25:20;;;;;;;7.15;3.63;;;2.10;73.10;;;;;;5074072;28;20029;-36
2024/01/21 05:27:45;;;;;;;5.28;3.10;;;2.10;73.10;;;;;;5073511;28;20534;-35
2024/01/21 05:30:12;;;;;;;5.22;3.15;;;2.10;73.50;;;;;;5074070;28;20099;-36
2024/01/21 05:32:38;;;;;;;5.47;2.63;;;2.20;73.10;;;;;;5074149;28;20021;-34
2024/01/21 05:35:04;;;;;;;3.58;2.40;;;2.20;72.90;;;;;;5073765;28;20048;-36
2024/01/21 05:37:30;;;;;;;5.68;3.05;;;2.20;73.10;;;;;;5073258;28;20024;-36
2024/01/21 05:39:55;;;;;;;5.20;3.15;;;2.30;73.10;;;;;;5073979;28;20020;-36
2024/01/21 05:42:21;;;;;;;3.70;2.70;;;2.20;72.60;;;;;;5073854;28;20066;-36
2024/01/21 05:44:47;;;;;;;5.50;2.95;;;2.30;72.40;;;;;;5074045;28;20017;-35
2024/01/21 05:47:12;;;;;;;4.10;2.60;;;2.30;72.20;;;;;;5073871;28;20043;-36
2024/01/21 05:49:39;;;;;;;5.40;2.90;;;2.30;72.00;;;;;;5073533;28;20029;-35
2024/01/21 05:52:04;;;;;;;5.20;3.03;;;2.30;71.70;;;;;;5073587;28;20028;-36
2024/01/21 05:54:30;;;;;;;4.40;2.67;;;2.30;71.50;;;;;;5073684;28;20047;-36
2024/01/21 05:56:55;;;;;;;4.47;2.80;;;2.40;71.30;;;;;;5073541;28;20047;-36
2024/01/21 05:59:21;;;;;;;4.60;2.90;;;2.40;71.30;;;;;;5072014;28;20115;-36
2024/01/21 06:01:48;;;;;;;5.18;2.95;;;2.40;71.20;;;;;;5073262;28;20028;-37
2024/01/21 06:04:14;;;;;;;4.25;2.63;;;2.40;71.00;;;;;;5073768;28;20362;-36
2024/01/21 06:06:39;;;;;;;4.57;2.90;;;2.40;71.00;;;;;;5073280;28;20047;-36
2024/01/21 06:09:05;;;;;;;4.30;2.67;;;2.50;70.90;;;;;;5073570;28;20182;-36
2024/01/21 06:11:31;;;;;;;5.53;3.15;;;2.50;70.90;;;;;;5073157;28;20052;-36
2024/01/21 06:13:56;;;;;;;4.80;3.03;;;2.50;70.80;;;;;;5073290;28;20032;-36
2024/01/21 06:16:22;;;;;;;5.72;3.22;;;2.50;70.60;;;;;;5073397;28;20024;-36
2024/01/21 06:18:47;;;;;;;6.20;3.10;;;2.50;70.50;;;;;;5073077;28;20501;-36
2024/01/21 06:21:16;;;;;;;4.38;2.92;;;2.50;70.70;;;;;;5073014;28;20491;-35
2024/01/21 06:23:42;;;;;;;5.07;3.20;;;2.50;70.70;;;;;;5073300;28;20382;-36
2024/01/21 06:26:19;;;;;;;5.25;3.45;;;2.50;70.50;;;;;;5072871;28;20173;-36
2024/01/21 06:28:45;;;;;;;4.38;3.00;;;2.50;70.30;;;;;;5073044;28;20024;-37
2024/01/21 06:31:11;;;;;;;5.57;3.40;;;2.50;70.10;;;;;;5072845;28;20461;-36
2024/01/21 06:33:38;;;;;;;4.93;3.10;;;2.50;70.00;;;;;;5072911;28;20048;-36
2024/01/21 06:36:04;;;;;;;5.75;3.40;;;2.50;69.70;;;;;;5072918;28;20031;-36
2024/01/21 06:38:29;;;;;;;4.30;3.08;;;2.50;69.70;;;;;;5072715;28;20029;-37
2024/01/21 06:40:55;;;;;;;7.22;3.35;;;2.60;69.80;;;;;;5072892;28;20020;-35
2024/01/21 06:43:20;;;;;;;5.05;3.13;;;2.60;69.60;;;;;;5072620;28;20074;-36
2024/01/21 06:45:46;;;;;;;5.63;3.50;;;2.60;69.60;;;;;;5072525;28;20036;-34
2024/01/21 06:48:11;;;;;;;5.22;3.28;;;2.60;69.60;;;;;;5072491;28;20032;-35
2024/01/21 06:50:37;;;;;;;6.35;3.55;;;2.60;69.50;;;;;;5072200;28;20035;-35
2024/01/21 06:53:03;;;;;;;6.25;3.53;;;2.70;69.60;;;;;;5072662;28;20477;-36
2024/01/21 06:55:28;;;;;;;5.40;3.13;;;2.70;69.50;;;;;;5072490;28;20078;-36
2024/01/21 06:57:54;;;;;;;5.35;3.22;;;2.70;69.50;;;;;;5072096;28;20111;-35
2024/01/21 07:00:20;;;;;;;6.57;3.65;;;2.80;69.50;;;;;;5072172;28;20025;-36
2024/01/21 07:02:45;;;;;;;5.82;3.50;;;2.80;69.50;;;;;;5072038;28;20116;-36
2024/01/21 07:05:11;;;;;;;6.15;3.70;;;2.90;69.40;;;;;;5072577;28;20491;-37
2024/01/21 07:07:36;;;;;;;5.53;3.25;;;2.90;69.40;;;;;;5072528;28;20029;-36
2024/01/21 07:10:02;;;;;;;6.38;3.53;;;2.90;69.30;;;;;;5072234;28;20052;-35
2024/01/21 07:12:28;;;;;;;5.13;3.53;;;2.90;69.20;;;;;;5072001;28;20028;-36
2024/01/21 07:14:53;;;;;;;6.68;3.53;;;3.00;69.10;;;;;;5072061;28;20032;-36
2024/01/21 07:17:19;;;;;;;5.28;3.50;;;3.00;69.20;;;;;;5072662;28;20036;-36
2024/01/21 07:19:44;;;;;;;6.97;4.03;;;3.00;69.20;;;;;;5071918;28;20206;-36
2024/01/21 07:22:10;;;;;;;6.53;3.78;;;3.10;69.10;;;;;;5072198;28;20492;-36
2024/01/21 07:24:36;;;;;;;10.13;4.35;;;3.10;69.10;;;;;;5071908;28;20017;-36
2024/01/21 07:27:03;;;;;;;5.38;3.78;;;3.10;69.00;;;;;;5072075;28;20029;-36
2024/01/21 07:29:28;;;;;;;6.88;3.83;;;3.00;68.90;;;;;;5071926;28;20123;-36
2024/01/21 07:31:54;;;;;;;5.60;3.58;;;3.00;68.90;;;;;;5071889;28;20479;-36
2024/01/21 07:34:19;;;;;;;7.45;4.13;;;3.10;69.20;;;;;;5071812;28;20147;-36
2024/01/21 07:36:45;;;;;;;6.57;3.45;;;3.10;69.10;;;;;;5070356;28;20028;-36
2024/01/21 07:39:11;;;;;;;9.32;3.88;;;3.20;68.80;;;;;;5071799;28;20024;-36
2024/01/21 07:41:37;;;;;;;6.75;3.65;;;3.20;69.00;;;;;;5071876;28;20024;-38
2024/01/21 07:44:03;;;;;;;5.15;3.47;;;3.20;68.90;;;;;;5071677;28;20025;-34
2024/01/21 07:46:28;;;;;;;6.07;3.70;;;3.20;68.80;;;;;;5071949;28;20051;-36
2024/01/21 07:48:54;;;;;;;6.93;4.00;;;3.20;68.50;;;;;;5071627;28;20540;-35
2024/01/21 07:51:20;;;;;;;6.07;3.97;;;3.20;68.30;;;;;;5070530;28;20480;-36
2024/01/21 07:53:46;;;;;;;5.30;3.50;;;3.30;68.20;;;;;;5071507;28;20119;-36
2024/01/21 07:56:14;;;;;;;5.20;3.38;;;3.30;68.10;;;;;;5071618;28;20480;-36
2024/01/21 07:58:40;;;;;;;8.38;4.00;;;3.30;68.10;;;;;;5070913;28;20463;-37
2024/01/21 08:01:12;;;;;;;5.85;3.97;;;3.30;68.00;;;;;;5071276;28;20021;-35
2024/01/21 08:03:38;;;;;;;8.02;3.97;;;3.30;67.80;;;;;;5070341;28;20120;-35
2024/01/21 08:06:07;;;;;;;6.85;4.57;;;3.30;67.40;;;;;;5070295;28;20063;-36
2024/01/21 08:08:33;;;;;;;6.53;4.00;;;3.40;66.80;;;;;;5070346;28;20083;-35
2024/01/21 08:10:59;;;;;;;8.27;4.13;;;3.40;66.80;;;;;;5070276;28;20036;-35
2024/01/21 08:13:25;;;;;;;7.50;4.18;;;3.40;66.80;;;;;;5070037;28;20024;-34
2024/01/21 08:15:50;;;;;;;7.05;4.03;;;3.40;66.70;;;;;;5069953;28;20044;-35
2024/01/21 08:18:19;;;;;;;7.95;4.38;;;3.50;66.30;;;;;;5070963;28;20029;-36
2024/01/21 08:20:46;;;;;;;5.60;4.07;;;3.50;66.00;;;;;;5071513;28;20393;-36
2024/01/21 08:23:11;;;;;;;7.00;4.13;;;3.60;65.90;;;;;;5071208;28;20024;-36
2024/01/21 08:25:37;;;;;;;7.03;4.20;;;3.60;66.00;;;;;;5071294;28;20028;-35
2024/01/21 08:28:03;;;;;;;7.18;4.05;;;3.60;66.00;;;;;;5071346;28;20151;-36
2024/01/21 08:30:28;;;;;;;5.93;4.10;;;3.60;65.90;;;;;;5071342;28;20017;-36
2024/01/21 08:32:54;;;;;;;6.93;4.18;;;3.70;66.00;;;;;;5071027;28;20153;-35
2024/01/21 08:35:20;;;;;;;7.30;4.07;;;3.70;66.00;;;;;;5070932;28;20048;-35
2024/01/21 08:37:47;;;;;;;5.63;3.95;;;3.80;65.70;;;;;;5069737;28;20017;-36
2024/01/21 08:40:12;;;;;;;6.72;4.28;;;3.80;65.70;;;;;;5071319;28;20028;-36
2024/01/21 08:42:39;;;;;;;8.38;4.00;;;3.80;65.70;;;;;;5071073;28;20020;-34
2024/01/21 08:45:05;;;;;;;7.82;4.07;;;3.90;65.80;;;;;;5071373;28;20040;-37
2024/01/21 08:47:31;;;;;;;7.95;3.92;;;3.90;65.50;;;;;;5069845;28;20507;-35
2024/01/21 08:49:56;;;;;;;5.28;3.55;;;3.90;65.40;;;;;;5071246;28;20016;-35
2024/01/21 08:52:22;;;;;;;6.32;3.97;;;4.00;65.50;;;;;;5071375;28;20036;-38
2024/01/21 08:54:47;;;;;;;7.18;3.95;;;4.00;65.40;;;;;;5071115;28;20039;-36
2024/01/21 08:57:13;;;;;;;6.78;4.20;;;4.00;65.50;;;;;;5070958;28;20495;-36
2024/01/21 08:59:38;;;;;;;6.68;3.53;;;4.10;65.30;;;;;;5071067;28;20029;-36
2024/01/21 09:02:04;;;;;;;6.30;4.03;;;4.10;65.30;;;;;;5071059;28;20449;-36
2024/01/21 09:04:30;;;;;;;6.70;4.05;;;4.10;65.30;;;;;;5071289;28;20032;-37
2024/01/21 09:06:55;;;;;;;5.93;3.90;;;4.10;65.40;;;;;;5070762;28;20083;-36
2024/01/21 09:09:21;;;;;;;7.25;4.20;;;4.20;65.60;;;;;;5071265;28;20060;-37
2024/01/21 09:11:51;;;;;;;6.20;4.00;;;4.20;65.50;;;;;;5072573;28;20028;-35
2024/01/21 09:14:17;;;;;;;5.95;3.78;;;4.20;65.70;;;;;;5074419;28;20024;-36
2024/01/21 09:16:43;;;;;;;8.10;3.60;;;4.30;65.70;;;;;;5074575;28;20024;-36
2024/01/21 09:19:09;;;;;;;7.40;4.10;;;4.30;65.50;;;;;;5074260;28;20031;-35
2024/01/21 09:21:34;;;;;;;5.93;4.00;;;4.40;65.60;;;;;;5074402;28;20020;-36
2024/01/21 09:24:03;;;;;;;5.95;3.92;;;4.40;65.60;;;;;;5074473;28;20507;-36
2024/01/21 09:26:30;;;;;;;6.38;3.83;;;4.40;65.60;;;;;;5074383;28;20031;-39
2024/01/21 09:28:55;;;;;;;8.07;4.03;;;4.50;65.70;;;;;;5073984;28;20024;-36
2024/01/21 09:31:21;;;;;;;8.20;3.92;;;4.50;65.60;;;;;;5073893;28;20419;-36
2024/01/21 09:33:47;;;;;;;6.78;3.95;;;4.50;65.70;;;;;;5073864;28;20044;-36
2024/01/21 09:36:14;;;;;;;4.72;3.60;;;4.50;65.70;;;;;;5074031;28;20453;-37
2024/01/21 09:38:39;;;;;;;6.10;3.95;;;4.50;65.70;;;;;;5074378;28;20024;-37
2024/01/21 09:41:13;;;;;;;9.95;4.07;;;4.50;66.00;;;;;;5073785;28;20035;-37
2024/01/21 09:43:44;;;;;;;8.18;4.15;;;4.50;66.20;;;;;;5074607;28;20100;-36
2024/01/21 09:46:12;;;;;;;6.50;3.53;;;4.50;66.10;;;;;;5073815;28;20028;-34
2024/01/21 09:48:38;;;;;;;5.22;3.70;;;4.60;66.40;;;;;;5073693;28;20032;-36
2024/01/21 09:51:06;;;;;;;5.97;3.58;;;4.60;66.60;;;;;;5073619;28;20028;-35
2024/01/21 09:53:35;;;;;;;8.23;3.75;;;4.60;66.80;;;;;;5073773;28;20523;-37
2024/01/21 09:56:09;;;;;;;6.80;4.00;;;4.60;67.10;;;;;;5073512;28;20025;-36
2024/01/21 09:58:45;;;;;;;9.20;4.47;;;4.70;67.30;;;;;;5073567;28;20024;-35
2024/01/21 10:01:11;;;;;;;7.88;4.70;;;4.70;67.40;;;;;;5073584;28;20441;-37
2024/01/21 10:03:37;;;;;;;6.20;3.80;;;4.70;67.60;;;;;;5073739;28;20388;-37
2024/01/21 10:06:02;;;;;;;6.50;4.05;;;4.70;67.80;;;;;;5073126;28;20024;-36
2024/01/21 10:08:28;;;;;;;6.88;4.20;;;4.70;68.00;;;;;;5073271;28;20028;-36
2024/01/21 10:10:54;;;;;;;5.68;3.95;;;4.70;68.30;;;;;;5073523;28;20028;-35
2024/01/21 10:13:20;;;;;;;9.00;4.18;;;4.70;68.70;;;;;;5073472;28;20017;-36
2024/01/21 10:15:45;;;;;;;7.93;4.70;;;4.80;69.10;;;;;;5073045;28;20040;-37
2024/01/21 10:18:11;;;;;;;7.43;3.85;;;4.80;69.40;;;;;;5073161;28;20020;-37
2024/01/21 10:20:37;;;;;;;7.55;3.90;;;4.90;69.50;;;;;;5073251;28;20023;-37
2024/01/21 10:23:10;;;;;;;9.30;4.03;;;5.00;69.60;;;;;;5072634;28;20035;-37
2024/01/21 10:25:38;;;;;;;5.20;3.95;;;5.00;69.70;;;;;;5071789;28;20050;-36
2024/01/21 10:28:04;;;;;;;8.88;4.63;;;5.10;69.90;;;;;;5073025;28;20047;-36
2024/01/21 10:30:31;;;;;;;6.75;4.32;;;5.10;70.10;;;;;;5073120;28;20024;-36
2024/01/21 10:32:56;;;;;;;9.45;4.43;;;5.10;70.40;;;;;;5072823;28;20059;-39
2024/01/21 10:35:22;;;;;;;8.90;4.32;;;5.10;70.60;;;;;;5072621;28;20064;-37
2024/01/21 10:37:48;;;;;;;7.47;4.18;;;5.00;71.00;;;;;;5072630;28;20029;-35
2024/01/21 10:40:13;;;;;;;6.10;3.90;;;5.00;71.50;;;;;;5072696;28;20024;-37
2024/01/21 10:42:41;;;;;;;6.63;4.40;;;5.00;71.70;;;;;;5072883;28;20024;-34
2024/01/21 10:45:07;;;;;;;7.03;4.15;;;5.00;72.00;;;;;;5072927;28;20032;-35
2024/01/21 10:47:34;;;;;;;8.98;5.07;;;5.10;72.20;;;;;;5072535;28;20016;-36
2024/01/21 10:50:01;;;;;;;7.35;4.57;;;5.10;72.40;;;;;;5072606;28;20017;-36
2024/01/21 10:52:27;;;;;;;6.47;4.20;;;5.10;72.60;;;;;;5072441;28;20105;-36
2024/01/21 10:54:54;;;;;;;7.43;4.68;;;5.10;72.90;;;;;;5072530;28;20457;-36
2024/01/21 10:57:19;;;;;;;7.50;4.30;;;5.20;73.10;;;;;;5072305;28;20024;-35
2024/01/21 10:59:46;;;;;;;8.25;4.07;;;5.20;73.40;;;;;;5072191;28;20023;-33
2024/01/21 11:02:12;;;;;;;6.63;4.03;;;5.20;73.50;;;;;;5072467;28;20039;-35
2024/01/21 11:04:38;;;;;;;5.25;3.67;;;5.20;73.80;;;;;;5072304;28;20017;-35
2024/01/21 11:07:05;;;;;;;5.70;4.20;;;5.30;74.10;;;;;;5072121;28;20181;-36
2024/01/21 11:09:33;;;;;;;7.68;4.40;;;5.30;74.40;;;;;;5072430;28;20025;-35
2024/01/21 11:12:02;;;;;;;7.18;4.35;;;5.30;74.70;;;;;;5072340;28;20021;-37
2024/01/21 11:14:29;;;;;;;7.25;4.22;;;5.30;75.00;;;;;;5072334;28;20024;-36
2024/01/21 11:16:56;;;;;;;7.03;4.20;;;5.30;75.10;;;;;;5072017;28;20476;-36
2024/01/21 11:19:23;;;;;;;9.05;4.30;;;5.30;75.40;;;;;;5072352;28;20028;-36
2024/01/21 11:21:54;;;;;;;7.53;4.65;;;5.30;75.80;;;;;;5071642;28;20025;-35
2024/01/21 11:24:27;;;;;;;8.48;4.00;;;5.30;75.90;;;;;;5071917;28;20028;-36
2024/01/21 11:26:52;;;;;;;11.30;4.80;;;5.40;76.00;;;;;;5070584;28;20430;-37
2024/01/21 11:29:22;;;;;;;13.05;6.97;;;5.40;76.20;;;;;;5071778;28;20021;-35
2024/01/21 11:31:49;;;;;;;29.52;11.15;;;5.40;76.20;;;;;;5071628;28;20081;-35
2024/01/21 11:34:17;;;;;;;24.85;11.13;;;5.40;76.30;;;;;;5071020;28;20056;-36
2024/01/21 11:36:44;;;;;;;17.33;8.55;;;5.40;76.40;;;;;;5071726;28;20043;-35
2024/01/21 11:39:10;;;;;;;9.48;5.88;;;5.50;76.60;;;;;;5070374;28;20023;-35
2024/01/21 11:41:41;;;;;;;9.68;5.60;;;5.50;76.70;;;;;;5071648;28;20103;-35
2024/01/21 11:44:28;;;;;;;7.93;4.40;;;5.50;76.80;;;;;;5071870;28;20116;-35
2024/01/21 11:46:56;;;;;;;8.43;5.25;;;5.50;76.80;;;;;;5071680;28;20031;-36
2024/01/21 11:49:22;;;;;;;6.90;4.50;;;5.50;77.00;;;;;;5071911;28;20096;-35
2024/01/21 11:51:48;;;;;;;7.97;4.35;;;5.50;77.10;;;;;;5071611;28;20111;-34
2024/01/21 11:54:15;;;;;;;7.70;4.35;;;5.60;77.10;;;;;;5071675;28;20025;-35
2024/01/21 11:56:41;;;;;;;7.32;4.70;;;5.60;77.10;;;;;;5071496;28;20108;-35
2024/01/21 11:59:09;;;;;;;6.65;4.60;;;5.60;77.10;;;;;;5071750;28;20096;-35
2024/01/21 12:01:39;;;;;;;9.77;5.50;;;5.70;77.20;;;;;;5070093;28;20416;-34
2024/01/21 12:04:07;;;;;;;7.03;4.90;;;5.70;77.80;;;;;;5072015;28;20047;-37
2024/01/21 12:06:35;;;;;;;7.10;4.60;;;5.70;77.20;;;;;;5071334;28;20103;-41
2024/01/21 12:09:01;;;;;;;8.35;5.20;;;5.60;77.20;;;;;;5071695;28;20078;-35
2024/01/21 12:11:31;;;;;;;6.93;4.78;;;5.60;77.30;;;;;;5071534;28;20112;-34
2024/01/21 12:13:57;;;;;;;7.45;4.60;;;5.70;77.40;;;;;;5071465;28;20099;-34
2024/01/21 12:16:23;;;;;;;7.07;4.88;;;5.70;77.40;;;;;;5071392;28;20534;-35
2024/01/21 12:18:49;;;;;;;7.07;4.60;;;5.70;77.20;;;;;;5071632;28;20021;-35
2024/01/21 12:21:15;;;;;;;6.93;4.90;;;5.70;77.20;;;;;;5071348;28;20017;-35
2024/01/21 12:23:46;;;;;;;6.72;4.47;;;5.70;77.20;;;;;;5071807;28;20465;-36
2024/01/21 12:26:16;;;;;;;5.05;4.22;;;5.70;77.20;;;;;;5071206;28;20052;-35
2024/01/21 12:28:57;;;;;;;7.35;4.90;;;5.80;77.30;;;;;;5071497;28;20021;-35
2024/01/21 12:31:29;;;;;;;8.38;5.07;;;5.80;77.30;;;;;;5071198;28;20027;-36
2024/01/21 12:34:14;;;;;;;6.40;4.18;;;5.80;77.30;;;;;;5071225;28;20409;-35
2024/01/21 12:36:41;;;;;;;7.00;5.15;;;5.80;77.20;;;;;;5071036;28;20052;-35
2024/01/21 12:39:11;;;;;;;8.40;5.28;;;5.80;77.40;;;;;;5069939;28;20082;-36
2024/01/21 12:41:38;;;;;;;7.18;5.07;;;5.80;77.60;;;;;;5071138;28;20029;-36
2024/01/21 12:44:04;;;;;;;5.97;4.53;;;5.80;77.60;;;;;;5071078;28;20169;-36
2024/01/21 12:46:30;;;;;;;8.13;4.57;;;5.80;77.80;;;;;;5074047;28;20124;-36
2024/01/21 12:48:56;;;;;;;8.50;5.32;;;5.80;77.90;;;;;;5075200;28;20040;-35
2024/01/21 12:51:25;;;;;;;7.55;4.80;;;5.90;78.00;;;;;;5074708;28;20461;-36